createdAt,value
2023-02-11T00:01:16.543Z,54.27
2023-02-11T00:03:43.834Z,54.01
2023-02-11T00:06:11.617Z,54.25
2023-02-11T00:08:39.580Z,54.17
2023-02-11T00:11:08.246Z,54.01
2023-02-11T00:13:35.296Z,54.25
2023-02-11T00:16:10.470Z,54.97
2023-02-11T00:18:37.613Z,54.37
2023-02-11T00:21:09.443Z,54.02
2023-02-11T00:23:37.356Z,54.23
2023-02-11T00:26:11.667Z,53.71
2023-02-11T00:28:40.435Z,54.27
2023-02-11T00:31:10.912Z,53.83
2023-02-11T00:33:38.226Z,54.03
2023-02-11T00:36:08.350Z,53.71
2023-02-11T00:38:35.398Z,53.87
2023-02-11T00:41:02.366Z,53.82
2023-02-11T00:43:29.435Z,54.10
2023-02-11T00:45:57.040Z,53.99
2023-02-11T00:48:24.075Z,54.17
2023-02-11T00:50:51.008Z,54.10
2023-02-11T00:53:18.057Z,54.29
2023-02-11T00:55:45.043Z,54.10
2023-02-11T00:58:11.998Z,53.80
2023-02-11T01:00:38.933Z,53.98
2023-02-11T01:03:06.386Z,54.01
2023-02-11T01:05:33.523Z,53.90
2023-02-11T01:08:00.527Z,53.90
2023-02-11T01:10:28.858Z,54.02
2023-02-11T01:12:56.010Z,53.87
2023-02-11T01:15:25.490Z,54.26
2023-02-11T01:17:52.563Z,54.42
2023-02-11T01:20:23.494Z,54.00
2023-02-11T01:22:50.441Z,54.13
2023-02-11T01:25:17.642Z,54.18
2023-02-11T01:27:44.808Z,54.23
2023-02-11T01:30:14.823Z,54.48
2023-02-11T01:32:41.803Z,55.29
2023-02-11T01:35:08.960Z,54.40
2023-02-11T01:37:36.590Z,54.46
2023-02-11T01:40:06.149Z,54.39
2023-02-11T01:42:34.734Z,54.57
2023-02-11T01:45:24.861Z,54.93
2023-02-11T01:47:51.815Z,54.59
2023-02-11T01:50:18.928Z,54.94
2023-02-11T01:52:48.061Z,54.95
2023-02-11T01:55:34.957Z,54.78
2023-02-11T01:58:05.325Z,55.31
2023-02-11T02:00:38.115Z,55.01
2023-02-11T02:03:16.534Z,55.15
2023-02-11T02:06:08.120Z,55.43
2023-02-11T02:09:09.676Z,55.66
2023-02-11T02:11:37.227Z,54.88
2023-02-11T02:14:04.349Z,55.25
2023-02-11T02:16:36.994Z,54.99
2023-02-11T02:19:25.526Z,55.80
2023-02-11T02:22:40.971Z,55.85
2023-02-11T02:25:14.097Z,55.35
2023-02-11T02:28:16.548Z,55.44
2023-02-11T02:31:17.457Z,55.85
2023-02-11T02:34:02.126Z,55.58
2023-02-11T02:36:55.638Z,55.83
2023-02-11T02:39:27.162Z,55.28
2023-02-11T02:41:58.972Z,55.31
2023-02-11T02:44:26.318Z,55.03
2023-02-11T02:46:53.386Z,54.73
2023-02-11T02:49:20.351Z,55.07
2023-02-11T02:52:08.854Z,55.07
2023-02-11T02:55:09.430Z,55.59
2023-02-11T02:58:08.914Z,55.14
2023-02-11T03:00:53.852Z,55.88
2023-02-11T03:03:44.479Z,55.70
2023-02-11T03:06:21.239Z,55.32
2023-02-11T03:09:40.693Z,55.01
2023-02-11T03:12:08.638Z,54.77
2023-02-11T03:14:37.634Z,54.90
2023-02-11T03:17:07.373Z,54.92
2023-02-11T03:19:44.461Z,55.78
2023-02-11T03:22:20.276Z,55.47
2023-02-11T03:24:47.861Z,55.13
2023-02-11T03:27:30.954Z,55.43
2023-02-11T03:30:16.750Z,55.79
2023-02-11T03:32:53.950Z,55.51
2023-02-11T03:35:45.883Z,55.58
2023-02-11T03:38:20.116Z,55.20
2023-02-11T03:40:47.801Z,55.59
2023-02-11T03:43:33.822Z,55.80
2023-02-11T03:46:02.756Z,55.07
2023-02-11T03:48:45.015Z,55.76
2023-02-11T03:51:14.300Z,55.41
2023-02-11T03:53:44.651Z,55.51
2023-02-11T03:56:17.712Z,56.05
2023-02-11T03:58:45.990Z,56.01
2023-02-11T04:01:13.061Z,56.02
2023-02-11T04:03:40.249Z,55.64
2023-02-11T04:06:08.310Z,56.07
2023-02-11T04:08:35.506Z,55.94
2023-02-11T04:11:02.471Z,55.60
2023-02-11T04:13:30.380Z,56.28
2023-02-11T04:15:57.497Z,56.09
2023-02-11T04:18:24.585Z,56.21
2023-02-11T04:20:51.768Z,55.72
2023-02-11T04:23:18.763Z,56.08
2023-02-11T04:25:45.714Z,56.34
2023-02-11T04:28:14.261Z,56.18
2023-02-11T04:30:41.258Z,55.71
2023-02-11T04:33:08.187Z,55.95
2023-02-11T04:35:35.093Z,56.15
2023-02-11T04:38:02.032Z,56.09
2023-02-11T04:40:29.073Z,55.84
2023-02-11T04:42:56.012Z,56.13
2023-02-11T04:45:23.277Z,56.13
2023-02-11T04:47:50.417Z,56.20
2023-02-11T04:50:17.888Z,55.83
2023-02-11T04:52:44.898Z,56.37
2023-02-11T04:55:12.779Z,56.64
2023-02-11T04:57:39.726Z,56.35
2023-02-11T05:00:08.337Z,56.18
2023-02-11T05:02:35.297Z,56.65
2023-02-11T05:05:02.629Z,56.41
2023-02-11T05:07:29.786Z,56.32
2023-02-11T05:09:56.876Z,56.45
2023-02-11T05:12:23.960Z,56.76
2023-02-11T05:14:54.127Z,56.83
2023-02-11T05:17:23.789Z,56.67
2023-02-11T05:19:50.672Z,56.80
2023-02-11T05:22:17.728Z,56.93
2023-02-11T05:24:44.758Z,56.90
2023-02-11T05:27:11.777Z,56.78
2023-02-11T05:29:38.968Z,57.10
2023-02-11T05:32:07.430Z,56.93
2023-02-11T05:34:34.511Z,57.06
2023-02-11T05:37:01.482Z,56.94
2023-02-11T05:39:28.504Z,56.97
2023-02-11T05:41:55.494Z,56.84
2023-02-11T05:44:22.458Z,57.13
2023-02-11T05:46:49.708Z,57.10
2023-02-11T05:49:17.820Z,56.82
2023-02-11T05:51:44.857Z,57.17
2023-02-11T05:54:12.384Z,56.93
2023-02-11T05:56:39.538Z,57.36
2023-02-11T05:59:06.498Z,56.72
2023-02-11T06:01:33.500Z,57.03
2023-02-11T06:04:00.609Z,56.87
2023-02-11T06:06:27.737Z,56.95
2023-02-11T06:08:54.633Z,56.56
2023-02-11T06:11:21.584Z,56.98
2023-02-11T06:13:48.576Z,56.83
2023-02-11T06:16:15.675Z,56.52
2023-02-11T06:18:42.951Z,56.66
2023-02-11T06:21:11.264Z,56.67
2023-02-11T06:23:38.668Z,56.56
2023-02-11T06:26:08.051Z,56.94
2023-02-11T06:28:36.329Z,56.76
2023-02-11T06:31:08.013Z,57.22
2023-02-11T06:33:36.094Z,56.79
2023-02-11T06:36:03.645Z,56.72
2023-02-11T06:38:30.747Z,56.63
2023-02-11T06:40:57.632Z,57.24
2023-02-11T06:43:24.544Z,56.71
2023-02-11T06:45:55.670Z,57.07
2023-02-11T06:48:23.972Z,56.62
2023-02-11T06:50:50.918Z,56.89
2023-02-11T06:53:17.879Z,56.74
2023-02-11T06:55:44.837Z,56.65
2023-02-11T06:58:11.793Z,56.66
2023-02-11T07:00:39.009Z,56.78
2023-02-11T07:03:06.025Z,56.13
2023-02-11T07:05:34.462Z,55.87
2023-02-11T07:08:01.517Z,55.14
2023-02-11T07:10:28.432Z,54.25
2023-02-11T07:12:57.775Z,53.47
2023-02-11T07:15:25.890Z,52.34
2023-02-11T07:17:52.823Z,51.38
2023-02-11T07:20:20.051Z,50.63
2023-02-11T07:22:47.025Z,49.57
2023-02-11T07:25:14.050Z,48.31
2023-02-11T07:27:41.162Z,47.06
2023-02-11T07:30:09.493Z,46.35
2023-02-11T07:32:36.449Z,45.50
2023-02-11T07:35:04.765Z,44.68
2023-02-11T07:37:34.576Z,44.24
2023-02-11T07:40:01.714Z,43.16
2023-02-11T07:42:28.649Z,42.68
2023-02-11T07:44:55.520Z,41.93
2023-02-11T07:47:22.460Z,41.08
2023-02-11T07:49:52.186Z,40.13
2023-02-11T07:52:23.190Z,39.23
2023-02-11T07:54:50.165Z,38.74
2023-02-11T07:57:17.139Z,38.37
2023-02-11T07:59:44.095Z,37.22
2023-02-11T08:02:11.828Z,36.80
2023-02-11T08:04:39.068Z,36.14
2023-02-11T08:07:08.671Z,35.14
2023-02-11T08:09:35.718Z,34.27
2023-02-11T08:12:02.742Z,33.51
2023-02-11T08:14:29.885Z,33.32
2023-02-11T08:16:56.860Z,32.99
2023-02-11T08:19:24.134Z,31.97
2023-02-11T08:21:51.297Z,31.43
2023-02-11T08:24:18.261Z,31.37
2023-02-11T08:26:45.297Z,29.66
2023-02-11T08:29:13.873Z,29.47
2023-02-11T08:31:43.889Z,28.39
2023-02-11T08:34:14.239Z,28.42
2023-02-11T08:36:45.949Z,28.56
2023-02-11T08:39:20.631Z,27.43
2023-02-11T08:41:49.730Z,27.63
2023-02-11T08:44:18.668Z,26.64
2023-02-11T08:46:46.091Z,26.02
2023-02-11T08:49:13.192Z,25.32
2023-02-11T08:51:40.240Z,25.86
2023-02-11T08:54:10.110Z,25.57
2023-02-11T08:56:38.708Z,23.67
2023-02-11T08:59:06.322Z,24.06
2023-02-11T09:01:34.008Z,24.31
2023-02-11T09:04:01.356Z,23.48
2023-02-11T09:06:28.810Z,22.62
2023-02-11T09:08:58.082Z,22.63
2023-02-11T09:11:32.240Z,22.23
2023-02-11T09:14:00.217Z,22.16
2023-02-11T09:16:30.312Z,21.49
2023-02-11T09:18:58.624Z,21.32
2023-02-11T09:21:26.104Z,21.39
2023-02-11T09:23:53.425Z,20.92
2023-02-11T09:26:27.415Z,20.38
2023-02-11T09:28:55.227Z,19.89
2023-02-11T09:31:25.619Z,19.93
2023-02-11T09:33:56.033Z,19.06
2023-02-11T09:36:29.481Z,18.78
2023-02-11T09:38:58.927Z,18.83
2023-02-11T09:41:37.739Z,18.47
2023-02-11T09:44:08.187Z,18.37
2023-02-11T09:46:40.137Z,18.18
2023-02-11T09:49:08.367Z,17.78
2023-02-11T09:51:44.411Z,17.59
2023-02-11T09:54:24.873Z,16.83
2023-02-11T09:56:51.773Z,17.12
2023-02-11T09:59:18.898Z,16.64
2023-02-11T10:01:59.084Z,16.14
2023-02-11T10:04:41.431Z,16.01
2023-02-11T10:07:19.637Z,16.06
2023-02-11T10:10:03.080Z,15.50
2023-02-11T10:12:48.382Z,15.99
2023-02-11T10:15:24.186Z,16.29
2023-02-11T10:18:14.329Z,15.68
2023-02-11T10:20:56.403Z,15.28
2023-02-11T10:23:29.691Z,16.57
2023-02-11T10:25:59.104Z,16.35
2023-02-11T10:28:35.192Z,15.44
2023-02-11T10:31:21.470Z,14.83
2023-02-11T10:34:03.689Z,15.61
2023-02-11T10:36:34.074Z,15.37
2023-02-11T10:39:14.265Z,15.46
2023-02-11T10:41:53.116Z,15.42
2023-02-11T10:44:28.973Z,15.59
2023-02-11T10:46:57.766Z,15.77
2023-02-11T10:49:40.583Z,15.70
2023-02-11T10:52:25.675Z,15.81
2023-02-11T10:55:01.867Z,16.18
2023-02-11T10:57:46.505Z,15.70
2023-02-11T11:00:28.449Z,16.09
2023-02-11T11:03:18.793Z,16.18
2023-02-11T11:05:58.834Z,16.35
2023-02-11T11:08:42.303Z,16.94
2023-02-11T11:11:18.959Z,16.98
2023-02-11T11:14:00.385Z,17.02
2023-02-11T11:16:28.327Z,17.82
2023-02-11T11:19:07.665Z,17.90
2023-02-11T11:21:42.066Z,18.15
2023-02-11T11:24:41.834Z,17.75
2023-02-11T11:27:19.728Z,18.28
2023-02-11T11:29:54.691Z,19.53
2023-02-11T11:32:26.948Z,19.08
2023-02-11T11:34:56.878Z,19.90
2023-02-11T11:37:27.720Z,21.39
2023-02-11T11:40:16.285Z,22.05
2023-02-11T11:42:43.378Z,23.48
2023-02-11T11:45:15.749Z,25.02
2023-02-11T11:48:11.412Z,25.53
2023-02-11T11:50:45.635Z,26.78
2023-02-11T11:53:21.661Z,27.11
2023-02-11T11:56:00.756Z,27.36
2023-02-11T11:58:29.311Z,27.43
2023-02-11T12:01:14.710Z,28.82
2023-02-11T12:03:48.889Z,30.21
2023-02-11T12:06:30.984Z,31.25
2023-02-11T12:09:22.418Z,31.63
2023-02-11T12:12:21.080Z,33.00
2023-02-11T12:15:08.653Z,33.05
2023-02-11T12:18:05.378Z,33.28
2023-02-11T12:20:51.688Z,34.52
2023-02-11T12:23:37.416Z,35.19
2023-02-11T12:26:28.951Z,36.41
2023-02-11T12:29:28.117Z,36.79
2023-02-11T12:32:27.009Z,38.88
2023-02-11T12:35:32.746Z,39.97
2023-02-11T12:38:26.008Z,42.88
2023-02-11T12:41:15.434Z,43.37
2023-02-11T12:43:44.724Z,43.17
2023-02-11T12:46:39.433Z,43.48
2023-02-11T12:49:25.581Z,44.11
2023-02-11T12:52:02.282Z,42.31
2023-02-11T12:54:40.003Z,41.98
2023-02-11T12:57:21.484Z,43.54
2023-02-11T13:00:15.427Z,42.99
2023-02-11T13:03:00.084Z,42.73
2023-02-11T13:05:49.705Z,42.79
2023-02-11T13:08:23.142Z,42.36
2023-02-11T13:10:57.973Z,42.48
2023-02-11T13:13:46.336Z,43.54
2023-02-11T13:16:26.459Z,42.89
2023-02-11T13:19:18.347Z,43.23
2023-02-11T13:22:00.354Z,44.00
2023-02-11T13:24:51.742Z,44.05
2023-02-11T13:27:43.986Z,43.79
2023-02-11T13:30:34.674Z,43.95
2023-02-11T13:33:01.689Z,44.50
2023-02-11T13:35:38.509Z,44.03
2023-02-11T13:38:17.946Z,45.28
2023-02-11T13:40:45.937Z,45.12
2023-02-11T13:43:24.547Z,45.12
2023-02-11T13:45:57.575Z,45.98
2023-02-11T13:48:27.938Z,44.98
2023-02-11T13:51:00.045Z,45.17
2023-02-11T13:53:28.247Z,45.38
2023-02-11T13:56:09.509Z,45.98
2023-02-11T13:58:46.677Z,45.49
2023-02-11T14:02:20.719Z,45.16
2023-02-11T14:05:24.607Z,45.90
2023-02-11T14:08:28.106Z,45.62
2023-02-11T14:11:24.375Z,46.09
2023-02-11T14:13:51.199Z,45.42
2023-02-11T14:16:37.068Z,46.08
2023-02-11T14:19:06.381Z,44.22
2023-02-11T14:21:39.630Z,44.18
2023-02-11T14:24:07.186Z,44.38
2023-02-11T14:26:51.327Z,45.66
2023-02-11T14:29:26.374Z,44.06
2023-02-11T14:32:06.094Z,44.09
2023-02-11T14:34:35.924Z,44.70
2023-02-11T14:37:24.845Z,44.93
2023-02-11T14:40:16.709Z,44.66
2023-02-11T14:42:43.942Z,44.23
2023-02-11T14:45:18.734Z,46.06
2023-02-11T14:47:53.310Z,45.45
2023-02-11T14:50:26.198Z,44.92
2023-02-11T14:52:54.881Z,44.69
2023-02-11T14:55:34.683Z,45.62
2023-02-11T14:58:25.411Z,44.23
2023-02-11T15:01:00.968Z,44.66
2023-02-11T15:03:40.021Z,43.54
2023-02-11T15:06:31.820Z,42.94
2023-02-11T15:09:04.319Z,42.52
2023-02-11T15:11:40.176Z,42.92
2023-02-11T15:14:11.268Z,43.10
2023-02-11T15:16:44.580Z,43.02
2023-02-11T15:19:39.655Z,41.88
2023-02-11T15:22:18.380Z,42.95
2023-02-11T15:24:45.618Z,42.71
2023-02-11T15:27:16.381Z,43.12
2023-02-11T15:29:47.286Z,42.28
2023-02-11T15:32:21.795Z,42.52
2023-02-11T15:34:52.063Z,43.48
2023-02-11T15:37:25.086Z,44.09
2023-02-11T15:39:53.269Z,43.25
2023-02-11T15:42:24.860Z,42.89
2023-02-11T15:45:30.917Z,43.37
2023-02-11T15:48:05.202Z,42.03
2023-02-11T15:50:36.915Z,42.56
2023-02-11T15:53:30.656Z,43.61
2023-02-11T15:56:24.584Z,42.57
2023-02-11T15:58:56.226Z,43.52
2023-02-11T16:01:37.692Z,43.46
2023-02-11T16:04:05.878Z,42.92
2023-02-11T16:06:37.457Z,43.33
2023-02-11T16:09:09.720Z,43.82
2023-02-11T16:11:46.247Z,43.88
2023-02-11T16:14:31.260Z,43.95
2023-02-11T16:17:07.311Z,44.02
2023-02-11T16:19:36.209Z,43.77
2023-02-11T16:22:10.440Z,43.45
2023-02-11T16:24:39.476Z,43.87
2023-02-11T16:27:30.405Z,44.35
2023-02-11T16:29:58.795Z,43.79
2023-02-11T16:32:28.211Z,43.73
2023-02-11T16:34:58.051Z,43.30
2023-02-11T16:37:25.560Z,42.96
2023-02-11T16:39:56.793Z,42.14
2023-02-11T16:42:23.800Z,42.34
2023-02-11T16:44:50.760Z,41.52
2023-02-11T16:47:25.154Z,41.08
2023-02-11T16:49:52.983Z,41.06
2023-02-11T16:52:21.133Z,41.02
2023-02-11T16:54:51.245Z,41.01
2023-02-11T16:57:21.221Z,41.24
2023-02-11T16:59:48.969Z,41.59
2023-02-11T17:02:20.385Z,41.51
2023-02-11T17:04:48.635Z,41.47
2023-02-11T17:07:15.548Z,41.52
2023-02-11T17:09:45.503Z,41.50
2023-02-11T17:12:12.469Z,42.18
2023-02-11T17:14:39.432Z,42.54
2023-02-11T17:17:06.511Z,42.91
2023-02-11T17:19:33.456Z,42.85
2023-02-11T17:22:00.464Z,43.41
2023-02-11T17:24:27.344Z,43.31
2023-02-11T17:26:54.997Z,43.20
2023-02-11T17:29:24.256Z,43.87
2023-02-11T17:31:52.264Z,43.67
2023-02-11T17:34:20.871Z,43.33
2023-02-11T17:36:47.813Z,43.46
2023-02-11T17:39:15.431Z,43.28
2023-02-11T17:41:42.447Z,43.45
2023-02-11T17:44:12.558Z,43.31
2023-02-11T17:46:39.703Z,43.06
2023-02-11T17:49:06.761Z,43.59
2023-02-11T17:51:36.229Z,43.33
2023-02-11T17:54:07.807Z,43.14
2023-02-11T17:56:36.589Z,42.86
2023-02-11T17:59:05.419Z,42.00
2023-02-11T18:01:33.769Z,42.04
2023-02-11T18:04:01.855Z,42.21
2023-02-11T18:06:29.319Z,42.03
2023-02-11T18:08:59.921Z,42.26
2023-02-11T18:11:28.002Z,42.40
2023-02-11T18:13:55.167Z,42.22
2023-02-11T18:16:24.108Z,42.29
2023-02-11T18:18:51.550Z,42.20
2023-02-11T18:21:20.625Z,42.36
2023-02-11T18:23:48.468Z,42.49
2023-02-11T18:26:17.897Z,42.66
2023-02-11T18:28:46.081Z,42.96
2023-02-11T18:31:14.254Z,43.21
2023-02-11T18:33:42.472Z,43.36
2023-02-11T18:36:14.398Z,43.39
2023-02-11T18:38:44.277Z,43.43
2023-02-11T18:41:12.391Z,43.75
2023-02-11T18:43:40.245Z,44.08
2023-02-11T18:46:09.936Z,44.28
2023-02-11T18:48:38.100Z,44.24
2023-02-11T18:51:23.596Z,44.37
2023-02-11T18:53:50.710Z,45.19
2023-02-11T18:56:20.779Z,45.72
2023-02-11T18:58:48.634Z,45.44
2023-02-11T19:01:19.497Z,45.97
2023-02-11T19:03:46.784Z,46.19
2023-02-11T19:06:16.428Z,46.20
2023-02-11T19:08:43.426Z,45.81
2023-02-11T19:11:10.557Z,45.66
2023-02-11T19:13:38.593Z,45.61
2023-02-11T19:16:11.525Z,45.81
2023-02-11T19:18:38.932Z,46.01
2023-02-11T19:21:10.584Z,45.59
2023-02-11T19:23:37.691Z,45.72
2023-02-11T19:26:04.948Z,45.91
2023-02-11T19:28:32.697Z,45.41
2023-02-11T19:31:06.028Z,46.02
2023-02-11T19:33:33.105Z,45.78
2023-02-11T19:36:12.348Z,46.28
2023-02-11T19:38:39.484Z,46.06
2023-02-11T19:41:06.511Z,46.15
2023-02-11T19:43:33.626Z,45.95
2023-02-11T19:46:05.035Z,46.08
2023-02-11T19:48:32.211Z,46.16
2023-02-11T19:51:06.846Z,46.36
2023-02-11T19:53:33.769Z,46.47
2023-02-11T19:56:08.610Z,46.56
2023-02-11T19:58:36.320Z,46.52
2023-02-11T20:01:08.375Z,46.70
2023-02-11T20:03:36.315Z,46.88
2023-02-11T20:06:15.154Z,47.50
2023-02-11T20:08:43.751Z,46.56
2023-02-11T20:11:13.219Z,46.65
2023-02-11T20:13:41.932Z,46.66
2023-02-11T20:16:17.104Z,47.06
2023-02-11T20:18:45.134Z,47.48
2023-02-11T20:21:18.601Z,47.25
2023-02-11T20:23:46.689Z,47.63
2023-02-11T20:26:21.913Z,47.70
2023-02-11T20:28:50.452Z,47.58
2023-02-11T20:31:18.359Z,47.92
2023-02-11T20:33:48.817Z,48.67
2023-02-11T20:36:20.636Z,48.33
2023-02-11T20:38:48.647Z,48.65
2023-02-11T20:41:19.151Z,48.88
2023-02-11T20:43:49.299Z,48.66
2023-02-11T20:46:18.130Z,48.85
2023-02-11T20:48:45.445Z,49.36
2023-02-11T20:51:19.326Z,48.95
2023-02-11T20:53:49.972Z,49.21
2023-02-11T20:56:39.018Z,50.00
2023-02-11T20:59:11.282Z,49.83
2023-02-11T21:01:41.010Z,49.68
2023-02-11T21:04:15.429Z,49.88
2023-02-11T21:06:48.396Z,50.06
2023-02-11T21:09:20.026Z,50.32
2023-02-11T21:11:48.478Z,51.47
2023-02-11T21:14:16.420Z,50.92
2023-02-11T21:16:46.542Z,50.46
2023-02-11T21:22:18.928Z,50.91
2023-02-11T21:24:45.927Z,51.16
2023-02-11T21:27:48.909Z,50.89
2023-02-11T21:30:16.349Z,51.08
2023-02-11T21:32:43.365Z,51.47
2023-02-11T21:35:10.341Z,51.27
2023-02-11T21:37:49.500Z,51.47
2023-02-11T21:40:31.399Z,51.54
2023-02-11T21:42:58.992Z,51.71
2023-02-11T21:45:28.319Z,52.22
2023-02-11T21:47:55.415Z,51.99
2023-02-11T21:50:22.599Z,52.35
2023-02-11T21:52:50.174Z,52.48
2023-02-11T21:55:20.053Z,52.13
2023-02-11T21:57:57.213Z,52.42
2023-02-11T22:00:32.420Z,52.07
2023-02-11T22:03:00.094Z,52.43
2023-02-11T22:08:14.117Z,53.54
2023-02-11T22:11:02.076Z,53.01
2023-02-11T22:13:29.320Z,53.74
2023-02-11T22:16:04.361Z,53.46
2023-02-11T22:18:31.590Z,53.56
2023-02-11T22:21:08.508Z,55.07
2023-02-11T22:23:37.453Z,53.41
2023-02-11T22:26:16.071Z,53.85
2023-02-11T22:28:43.828Z,53.72
2023-02-11T22:31:19.850Z,53.96
2023-02-11T22:33:47.333Z,53.61
2023-02-11T22:36:28.301Z,54.40
2023-02-11T22:38:56.275Z,53.39
2023-02-11T22:41:24.686Z,54.51
2023-02-11T22:43:51.951Z,54.26
2023-02-11T22:46:20.108Z,54.16
2023-02-11T22:48:48.072Z,54.47
2023-02-11T22:51:19.606Z,54.30
2023-02-11T22:53:58.028Z,54.88
2023-02-11T22:56:25.990Z,54.46
2023-02-11T22:58:53.846Z,54.52
2023-02-11T23:01:20.887Z,55.73
2023-02-11T23:03:48.180Z,55.64
2023-02-11T23:06:15.286Z,55.24
2023-02-11T23:08:45.479Z,56.08
2023-02-11T23:11:18.626Z,55.54
2023-02-11T23:13:47.055Z,55.63
2023-02-11T23:16:17.404Z,56.57
2023-02-11T23:18:46.758Z,56.41
2023-02-11T23:21:21.384Z,56.16
2023-02-11T23:23:54.035Z,55.83
2023-02-11T23:26:21.153Z,56.54
2023-02-11T23:28:48.647Z,55.93
2023-02-11T23:31:34.916Z,56.28
2023-02-11T23:34:13.166Z,56.70
2023-02-11T23:36:41.525Z,56.21
2023-02-11T23:39:11.544Z,56.64
2023-02-11T23:41:41.366Z,56.91
2023-02-11T23:44:09.876Z,56.39
2023-02-11T23:46:36.971Z,56.50
2023-02-11T23:49:04.112Z,56.71
2023-02-11T23:51:31.011Z,56.46
2023-02-11T23:53:58.047Z,56.61
2023-02-11T23:56:31.000Z,56.89
2023-02-11T23:58:59.489Z,57.06
